Sierra, Nevada
Current Conditions -  °F | °C
As of 8:35 AM on Saturday 22 Nov 2014 (Local Time) from KRTS Reporting Station
Broken Clouds Broken Clouds  
Wind Chill: 54°   Ceiling: 4700
Heat Index: 54°   Visibility: 10mi
Dew Point: 39°   Wind: 23mph
Humidity: 58%   Direction: 260°W
Pressure: 29.91"   Gusts: 32mph
Location:  39.7378°N, 119.889°W
Report Text: KRTS 221635Z AUTO 26020G28KT 10SM SCT041 BKN047 12/04 A2991 RMK AO2 P0001
Loading
Personal Weather Stations






























Interactive Weather Map New forecast layout! Learn more

10-Day Weather Forecast

Advertisements
Track Severe Weather on mobile